createdAt,value
2022-11-04T06:24:54.266Z,7.70
2022-11-04T06:28:18.875Z,7.70
2022-11-04T06:49:36.258Z,7.70
2022-11-04T06:56:08.910Z,7.80
2022-11-04T06:58:56.417Z,7.90
2022-11-04T07:46:03.003Z,8.30
2022-11-04T08:11:48.292Z,9.10
2022-11-04T08:14:21.638Z,9.40
2022-11-04T08:16:57.110Z,9.60
2022-11-04T08:19:38.446Z,9.60
2022-11-04T08:22:11.073Z,9.70
2022-11-04T08:24:43.149Z,9.70
2022-11-04T08:27:35.838Z,9.70
2022-11-04T08:30:04.611Z,9.70
2022-11-04T08:32:32.844Z,9.50
2022-11-04T08:35:03.283Z,9.50
2022-11-04T08:37:40.078Z,9.50
2022-11-04T08:40:10.493Z,9.50
2022-11-04T08:42:39.953Z,9.50
2022-11-04T08:49:03.483Z,9.70
2022-11-04T08:51:58.491Z,9.60
2022-11-04T11:21:33.239Z,11.60
2022-11-04T11:24:47.214Z,11.80
2022-11-04T11:35:17.088Z,11.70
2022-11-04T11:38:06.303Z,11.80
2022-11-04T11:48:07.311Z,12.20
2022-11-04T11:50:35.933Z,12.40
2022-11-04T11:53:16.612Z,12.40
2022-11-04T11:55:51.381Z,12.30
2022-11-04T12:01:25.317Z,12.10
2022-11-04T12:14:21.375Z,12.00
2022-11-04T12:20:29.347Z,12.00
2022-11-04T12:23:10.223Z,12.10
2022-11-04T12:25:45.943Z,12.20
2022-11-04T12:28:29.065Z,12.20
2022-11-04T12:31:09.633Z,12.00
2022-11-04T12:33:53.865Z,12.10
2022-11-04T12:36:41.029Z,12.00
2022-11-04T12:39:33.094Z,12.10
2022-11-04T12:42:22.477Z,12.30
2022-11-04T12:45:04.026Z,12.40
2022-11-04T12:47:38.109Z,12.50
2022-11-04T12:50:26.673Z,12.50
2022-11-04T12:53:35.814Z,12.30
2022-11-04T12:56:28.675Z,12.30
2022-11-04T12:59:30.765Z,12.40
2022-11-04T13:02:21.601Z,12.40
2022-11-04T13:05:35.906Z,12.30
2022-11-04T13:08:19.603Z,12.40
2022-11-04T13:11:04.365Z,12.50
2022-11-04T13:13:39.110Z,12.60
2022-11-04T13:19:13.114Z,12.70
2022-11-04T13:21:58.587Z,12.90
2022-11-04T13:24:31.968Z,13.10
2022-11-04T13:27:03.304Z,13.20
2022-11-04T13:29:34.626Z,13.20
2022-11-04T13:32:12.611Z,13.10
2022-11-04T13:34:51.394Z,13.20
2022-11-04T13:37:25.865Z,13.20
2022-11-04T13:39:59.796Z,13.10
2022-11-04T13:42:41.938Z,13.00
2022-11-04T13:45:14.775Z,13.00
2022-11-04T13:47:51.233Z,13.00
2022-11-04T13:50:34.320Z,12.90
2022-11-04T13:53:03.247Z,13.00
2022-11-04T13:55:32.943Z,13.10
2022-11-04T13:58:03.035Z,13.10
2022-11-04T14:00:31.924Z,13.30
2022-11-04T14:03:01.222Z,13.20
2022-11-04T14:06:07.630Z,13.30
2022-11-04T14:08:36.386Z,13.30
2022-11-04T14:11:11.144Z,13.00
2022-11-04T14:14:12.884Z,12.90
2022-11-04T14:16:47.375Z,12.90
2022-11-04T14:19:59.437Z,12.80
2022-11-04T14:22:37.625Z,12.80
2022-11-04T14:25:22.583Z,12.90
2022-11-04T14:27:57.045Z,12.90
2022-11-04T14:30:45.391Z,12.90
2022-11-04T14:33:29.554Z,12.90
2022-11-04T14:36:14.541Z,12.80
2022-11-04T14:38:43.452Z,12.80
2022-11-04T14:41:22.215Z,12.80
2022-11-04T14:43:55.018Z,12.70
2022-11-04T14:46:27.222Z,12.60
2022-11-04T14:48:57.916Z,12.50
2022-11-04T14:51:30.873Z,12.20
2022-11-04T14:54:06.431Z,11.70
2022-11-04T14:56:34.828Z,11.20
2022-11-04T14:59:08.523Z,10.80
2022-11-04T15:01:39.393Z,10.50
2022-11-04T15:04:14.375Z,10.40
2022-11-04T15:06:58.957Z,10.10
2022-11-04T15:09:29.512Z,10.10
2022-11-04T15:12:25.537Z,10.10
2022-11-04T15:14:59.742Z,10.20
2022-11-04T15:17:32.258Z,10.30
2022-11-04T15:20:07.757Z,10.20
2022-11-04T15:22:36.650Z,10.10
2022-11-04T15:25:06.719Z,10.10
2022-11-04T15:27:36.218Z,10.00
2022-11-04T15:30:17.369Z,10.00
2022-11-04T15:32:55.019Z,10.00
2022-11-04T15:35:23.897Z,9.90
2022-11-04T15:38:00.653Z,9.70
2022-11-04T15:40:33.094Z,9.60
2022-11-04T15:43:05.312Z,9.50
2022-11-04T15:45:38.920Z,9.50
2022-11-04T15:48:27.050Z,9.40
2022-11-04T15:51:13.630Z,9.40
2022-11-04T15:53:51.134Z,9.20
2022-11-04T15:56:24.638Z,9.20
2022-11-04T15:58:55.481Z,9.20
2022-11-04T16:01:25.898Z,9.00
2022-11-04T16:03:56.784Z,9.00
2022-11-04T16:06:38.042Z,8.90
2022-11-04T16:09:20.756Z,8.90
2022-11-04T16:12:28.996Z,8.80
2022-11-04T16:14:58.164Z,8.70
2022-11-04T16:17:29.137Z,8.70
2022-11-04T16:19:59.061Z,8.80
2022-11-04T16:22:31.710Z,8.80
2022-11-04T16:25:02.879Z,8.70
2022-11-04T16:27:33.314Z,8.70
2022-11-04T16:30:10.760Z,8.70
2022-11-04T16:32:44.524Z,8.70
2022-11-04T16:35:19.770Z,8.70
2022-11-04T16:37:49.384Z,8.70
2022-11-04T16:40:18.171Z,8.60
2022-11-04T16:42:47.556Z,8.60
2022-11-04T16:45:24.269Z,8.50
2022-11-04T16:47:54.647Z,8.40
2022-11-04T16:50:24.409Z,8.40
2022-11-04T16:52:53.094Z,8.50
2022-11-04T16:55:22.787Z,8.50
2022-11-04T16:57:56.545Z,8.60
2022-11-04T17:00:26.395Z,8.60
2022-11-04T17:02:58.616Z,8.60
2022-11-04T17:05:26.598Z,8.60
2022-11-04T17:07:58.879Z,8.60
2022-11-04T17:10:35.068Z,8.50
2022-11-04T17:13:03.098Z,8.50
2022-11-04T17:15:31.103Z,8.40
2022-11-04T17:18:00.470Z,8.40
2022-11-04T17:20:29.908Z,8.40
2022-11-04T17:22:57.852Z,8.30
2022-11-04T17:25:29.226Z,8.30
2022-11-04T17:27:57.294Z,8.30
2022-11-04T17:30:26.074Z,8.30
2022-11-04T17:32:54.071Z,8.30
2022-11-04T17:35:23.462Z,8.30
2022-11-04T17:37:53.746Z,8.30
2022-11-04T17:40:24.287Z,8.30
2022-11-04T17:43:12.174Z,8.40
2022-11-04T17:45:41.579Z,8.40
2022-11-04T17:48:10.316Z,8.40
2022-11-04T17:50:42.211Z,8.50
2022-11-04T17:53:10.617Z,8.60
2022-11-04T17:55:46.752Z,8.60
2022-11-04T17:58:15.277Z,8.60
2022-11-04T18:00:45.762Z,8.70
2022-11-04T18:03:13.861Z,8.70
2022-11-04T18:05:45.534Z,8.70
2022-11-04T18:12:25.490Z,8.70
2022-11-04T18:14:53.935Z,8.70
2022-11-04T18:17:24.892Z,8.70
2022-11-04T18:19:53.135Z,8.80
2022-11-04T18:22:23.347Z,8.70
2022-11-04T18:24:51.421Z,8.70
2022-11-04T18:27:24.756Z,8.70
2022-11-04T18:29:55.580Z,8.60
2022-11-04T18:32:23.624Z,8.60
2022-11-04T18:34:52.245Z,8.60
2022-11-04T18:37:23.214Z,8.60
2022-11-04T18:39:56.144Z,8.50
2022-11-04T18:42:24.355Z,8.50
2022-11-04T18:44:54.681Z,8.40
2022-11-04T18:47:23.970Z,8.40
2022-11-04T18:49:52.155Z,8.30
2022-11-04T18:52:20.175Z,8.30
2022-11-04T18:54:53.311Z,8.20
2022-11-04T18:57:21.274Z,8.20
2022-11-04T18:59:49.332Z,8.10
2022-11-04T19:02:21.461Z,8.10
2022-11-04T19:04:49.669Z,8.10
2022-11-04T19:07:17.720Z,8.10
2022-11-04T19:09:47.762Z,8.10
2022-11-04T19:12:35.026Z,8.10
2022-11-04T19:15:04.096Z,8.20
2022-11-04T19:17:34.838Z,8.20
2022-11-04T19:20:10.210Z,8.20
2022-11-04T19:22:39.868Z,8.20
2022-11-04T19:25:08.654Z,8.20
2022-11-04T19:27:38.104Z,8.30
2022-11-04T19:30:09.530Z,8.30
2022-11-04T19:32:37.575Z,8.30
2022-11-04T19:35:06.271Z,8.30
2022-11-04T19:37:34.455Z,8.30
2022-11-04T19:40:02.565Z,8.20
2022-11-04T19:42:47.930Z,8.20
2022-11-04T19:45:19.204Z,8.20
2022-11-04T19:47:47.358Z,8.10
2022-11-04T19:50:15.473Z,8.20
2022-11-04T19:52:44.200Z,8.30
2022-11-04T19:55:12.316Z,8.30
2022-11-04T19:57:41.471Z,8.30
2022-11-04T20:00:12.020Z,8.30
2022-11-04T20:02:41.492Z,8.40
2022-11-04T20:05:10.358Z,8.50
2022-11-04T20:07:39.399Z,8.50
2022-11-04T20:10:08.434Z,8.50
2022-11-04T20:12:53.877Z,8.40
2022-11-04T20:15:25.994Z,8.40
2022-11-04T20:17:55.746Z,8.30
2022-11-04T20:20:23.762Z,8.30
2022-11-04T20:22:51.817Z,8.30
2022-11-04T20:25:19.891Z,8.20
2022-11-04T20:27:47.913Z,8.20
2022-11-04T20:30:16.042Z,8.10
2022-11-04T20:32:44.052Z,8.10
2022-11-04T20:35:14.402Z,8.10
2022-11-04T20:37:45.395Z,8.10
2022-11-04T20:40:14.488Z,8.20
2022-11-04T20:42:47.760Z,8.10
2022-11-04T20:45:16.833Z,8.00
2022-11-04T20:47:44.885Z,8.00
2022-11-04T20:50:14.574Z,8.00
2022-11-04T20:52:42.600Z,8.00
2022-11-04T20:55:11.856Z,8.00
2022-11-04T20:57:39.935Z,8.00
2022-11-04T21:00:09.551Z,8.00
2022-11-04T21:02:37.638Z,8.00
2022-11-04T21:05:06.398Z,7.90
2022-11-04T21:07:36.475Z,7.90
2022-11-04T21:10:05.000Z,7.80
2022-11-04T21:12:32.951Z,7.80
2022-11-04T21:15:01.134Z,7.80
2022-11-04T21:17:29.130Z,7.80
2022-11-04T21:19:57.202Z,7.80
2022-11-04T21:22:25.149Z,7.80
2022-11-04T21:24:54.504Z,7.80
2022-11-04T21:27:22.491Z,7.70
2022-11-04T21:29:50.483Z,7.70
2022-11-04T21:32:18.451Z,7.60
2022-11-04T21:34:46.448Z,7.60
2022-11-04T21:37:14.478Z,7.60
2022-11-04T21:39:42.640Z,7.60
2022-11-04T21:42:12.052Z,7.60
2022-11-04T21:44:40.108Z,7.60
2022-11-04T21:47:08.324Z,7.60
2022-11-04T21:49:36.336Z,7.60
2022-11-04T21:52:05.954Z,7.50
2022-11-04T21:54:34.090Z,7.50
2022-11-04T21:57:02.107Z,7.50
2022-11-04T21:59:33.005Z,7.50
2022-11-04T22:02:01.063Z,7.50
2022-11-04T22:04:29.315Z,7.40
2022-11-04T22:07:02.179Z,7.40
2022-11-04T22:09:30.548Z,7.40
2022-11-04T22:11:58.658Z,7.40
2022-11-04T22:14:29.620Z,7.40
2022-11-04T22:16:59.081Z,7.40
2022-11-04T22:19:27.286Z,7.40
2022-11-04T22:21:55.345Z,7.40
2022-11-04T22:24:23.322Z,7.40
2022-11-04T22:26:51.344Z,7.50
2022-11-04T22:29:19.555Z,7.50
2022-11-04T22:31:50.141Z,7.50
2022-11-04T22:34:19.523Z,7.50
2022-11-04T22:36:50.011Z,7.60
2022-11-04T22:39:20.954Z,7.60
2022-11-04T22:41:49.915Z,7.60
2022-11-04T22:44:17.998Z,7.70
2022-11-04T22:46:46.100Z,7.70
2022-11-04T22:49:14.880Z,7.70
2022-11-04T22:51:44.395Z,7.70
2022-11-04T22:54:12.603Z,7.70
2022-11-04T22:56:40.618Z,7.70
2022-11-04T22:59:08.954Z,7.70
2022-11-04T23:01:37.140Z,7.70
2022-11-04T23:04:05.887Z,7.60
2022-11-04T23:06:33.917Z,7.60
2022-11-04T23:09:03.375Z,7.60
2022-11-04T23:11:51.005Z,7.60
2022-11-04T23:14:49.899Z,7.70
2022-11-04T23:17:38.692Z,7.70
2022-11-04T23:20:10.608Z,7.60
2022-11-04T23:22:56.229Z,7.60
2022-11-04T23:25:26.282Z,7.60
2022-11-04T23:28:13.799Z,7.60
2022-11-04T23:30:43.888Z,7.60
2022-11-04T23:33:14.458Z,7.50
2022-11-04T23:36:01.804Z,7.50
2022-11-04T23:38:30.375Z,7.40
2022-11-04T23:41:19.185Z,7.40
2022-11-04T23:43:47.429Z,7.40
2022-11-04T23:46:41.139Z,7.40
2022-11-04T23:49:29.420Z,7.50
2022-11-04T23:52:14.887Z,7.50
2022-11-04T23:55:00.304Z,7.50
2022-11-04T23:57:47.068Z,7.50
